sensor_id;sensor_type;location;lat;lon;timestamp;temperature;humidity
20345;DHT22;10330;48.816;9.278;2024-03-08T00:01:41;3.90;99.90
20345;DHT22;10330;48.816;9.278;2024-03-08T00:04:07;3.90;99.90
20345;DHT22;10330;48.816;9.278;2024-03-08T00:06:34;3.90;99.90
20345;DHT22;10330;48.816;9.278;2024-03-08T00:09:01;3.80;99.90
20345;DHT22;10330;48.816;9.278;2024-03-08T00:11:30;3.80;99.90
20345;DHT22;10330;48.816;9.278;2024-03-08T00:13:57;3.80;99.90
20345;DHT22;10330;48.816;9.278;2024-03-08T00:16:23;3.70;99.90
20345;DHT22;10330;48.816;9.278;2024-03-08T00:18:50;3.70;99.90
20345;DHT22;10330;48.816;9.278;2024-03-08T00:21:16;3.70;99.90
20345;DHT22;10330;48.816;9.278;2024-03-08T00:23:42;3.70;99.90
20345;DHT22;10330;48.816;9.278;2024-03-08T00:26:09;3.60;99.90
20345;DHT22;10330;48.816;9.278;2024-03-08T00:28:38;3.60;99.90
20345;DHT22;10330;48.816;9.278;2024-03-08T00:31:04;3.60;99.90
20345;DHT22;10330;48.816;9.278;2024-03-08T00:33:51;3.50;99.90
20345;DHT22;10330;48.816;9.278;2024-03-08T00:36:35;3.60;99.90
20345;DHT22;10330;48.816;9.278;2024-03-08T00:48:54;3.60;99.90
20345;DHT22;10330;48.816;9.278;2024-03-08T00:51:22;3.50;99.90
20345;DHT22;10330;48.816;9.278;2024-03-08T00:53:49;3.50;99.90
20345;DHT22;10330;48.816;9.278;2024-03-08T00:56:15;3.40;99.90
20345;DHT22;10330;48.816;9.278;2024-03-08T01:08:34;3.40;99.90
20345;DHT22;10330;48.816;9.278;2024-03-08T01:20:51;3.30;99.90
20345;DHT22;10330;48.816;9.278;2024-03-08T01:23:17;3.20;99.90
20345;DHT22;10330;48.816;9.278;2024-03-08T01:25:43;3.10;99.90
20345;DHT22;10330;48.816;9.278;2024-03-08T01:28:10;3.20;99.90
20345;DHT22;10330;48.816;9.278;2024-03-08T01:30:36;3.10;99.90
20345;DHT22;10330;48.816;9.278;2024-03-08T01:33:03;3.10;99.90
20345;DHT22;10330;48.816;9.278;2024-03-08T01:35:30;3.10;99.90
20345;DHT22;10330;48.816;9.278;2024-03-08T01:37:56;3.00;99.90
20345;DHT22;10330;48.816;9.278;2024-03-08T01:40:23;3.00;99.90
20345;DHT22;10330;48.816;9.278;2024-03-08T01:42:49;3.00;99.90
20345;DHT22;10330;48.816;9.278;2024-03-08T01:45:16;3.00;99.90
20345;DHT22;10330;48.816;9.278;2024-03-08T01:47:42;2.90;99.90
20345;DHT22;10330;48.816;9.278;2024-03-08T01:50:09;2.90;99.90
20345;DHT22;10330;48.816;9.278;2024-03-08T01:52:37;3.00;99.90
20345;DHT22;10330;48.816;9.278;2024-03-08T01:55:05;2.90;99.90
20345;DHT22;10330;48.816;9.278;2024-03-08T01:57:33;2.90;99.90
20345;DHT22;10330;48.816;9.278;2024-03-08T02:00:04;2.90;99.90
20345;DHT22;10330;48.816;9.278;2024-03-08T02:02:34;2.80;99.90
20345;DHT22;10330;48.816;9.278;2024-03-08T02:05:01;2.80;99.90
20345;DHT22;10330;48.816;9.278;2024-03-08T02:07:27;2.80;99.90
20345;DHT22;10330;48.816;9.278;2024-03-08T02:09:54;2.80;99.90
20345;DHT22;10330;48.816;9.278;2024-03-08T02:12:20;2.70;99.90
20345;DHT22;10330;48.816;9.278;2024-03-08T02:14:47;2.70;99.90
20345;DHT22;10330;48.816;9.278;2024-03-08T02:17:16;2.70;99.90
20345;DHT22;10330;48.816;9.278;2024-03-08T02:19:42;2.70;99.90
20345;DHT22;10330;48.816;9.278;2024-03-08T02:22:09;2.70;99.90
20345;DHT22;10330;48.816;9.278;2024-03-08T02:24:35;2.70;99.90
20345;DHT22;10330;48.816;9.278;2024-03-08T02:27:02;2.70;99.90
20345;DHT22;10330;48.816;9.278;2024-03-08T02:29:28;2.60;99.90
20345;DHT22;10330;48.816;9.278;2024-03-08T02:32:01;2.60;99.90
20345;DHT22;10330;48.816;9.278;2024-03-08T02:34:27;2.60;99.90
20345;DHT22;10330;48.816;9.278;2024-03-08T02:36:54;2.60;99.90
20345;DHT22;10330;48.816;9.278;2024-03-08T02:39:22;2.60;99.90
20345;DHT22;10330;48.816;9.278;2024-03-08T02:41:49;2.60;99.90
20345;DHT22;10330;48.816;9.278;2024-03-08T02:44:15;2.50;99.90
20345;DHT22;10330;48.816;9.278;2024-03-08T02:46:41;2.50;99.90
20345;DHT22;10330;48.816;9.278;2024-03-08T02:49:08;2.50;99.90
20345;DHT22;10330;48.816;9.278;2024-03-08T02:51:34;2.40;99.90
20345;DHT22;10330;48.816;9.278;2024-03-08T02:54:02;2.40;99.90
20345;DHT22;10330;48.816;9.278;2024-03-08T02:56:30;2.30;99.90
20345;DHT22;10330;48.816;9.278;2024-03-08T02:58:56;2.30;99.90
20345;DHT22;10330;48.816;9.278;2024-03-08T03:01:22;2.30;99.90
20345;DHT22;10330;48.816;9.278;2024-03-08T03:03:49;2.30;99.90
20345;DHT22;10330;48.816;9.278;2024-03-08T03:06:15;2.30;99.90
20345;DHT22;10330;48.816;9.278;2024-03-08T03:08:42;2.20;99.90
20345;DHT22;10330;48.816;9.278;2024-03-08T03:11:10;2.20;99.90
20345;DHT22;10330;48.816;9.278;2024-03-08T03:13:36;2.20;99.90
20345;DHT22;10330;48.816;9.278;2024-03-08T03:16:02;2.20;99.90
20345;DHT22;10330;48.816;9.278;2024-03-08T03:18:32;2.20;99.90
20345;DHT22;10330;48.816;9.278;2024-03-08T03:20:59;2.20;99.90
20345;DHT22;10330;48.816;9.278;2024-03-08T03:23:25;2.20;99.90
20345;DHT22;10330;48.816;9.278;2024-03-08T03:25:52;2.30;99.90
20345;DHT22;10330;48.816;9.278;2024-03-08T03:28:19;2.20;99.90
20345;DHT22;10330;48.816;9.278;2024-03-08T03:30:47;2.20;99.90
20345;DHT22;10330;48.816;9.278;2024-03-08T03:33:14;2.20;99.90
20345;DHT22;10330;48.816;9.278;2024-03-08T03:35:42;2.10;99.90
20345;DHT22;10330;48.816;9.278;2024-03-08T03:38:10;2.10;99.90
20345;DHT22;10330;48.816;9.278;2024-03-08T03:40:40;2.10;99.90
20345;DHT22;10330;48.816;9.278;2024-03-08T03:43:07;2.00;99.90
20345;DHT22;10330;48.816;9.278;2024-03-08T03:45:36;2.10;99.90
20345;DHT22;10330;48.816;9.278;2024-03-08T03:48:13;2.10;99.90
20345;DHT22;10330;48.816;9.278;2024-03-08T03:50:40;2.10;99.90
20345;DHT22;10330;48.816;9.278;2024-03-08T03:53:17;2.10;99.90
20345;DHT22;10330;48.816;9.278;2024-03-08T03:55:47;2.10;99.90
20345;DHT22;10330;48.816;9.278;2024-03-08T03:58:13;2.10;99.90
20345;DHT22;10330;48.816;9.278;2024-03-08T04:00:42;2.10;99.90
20345;DHT22;10330;48.816;9.278;2024-03-08T04:03:09;2.10;99.90
20345;DHT22;10330;48.816;9.278;2024-03-08T04:05:35;2.10;99.90
20345;DHT22;10330;48.816;9.278;2024-03-08T04:08:02;2.10;99.90
20345;DHT22;10330;48.816;9.278;2024-03-08T04:10:28;2.10;99.90
20345;DHT22;10330;48.816;9.278;2024-03-08T04:12:55;2.10;99.90
20345;DHT22;10330;48.816;9.278;2024-03-08T04:15:22;2.10;99.90
20345;DHT22;10330;48.816;9.278;2024-03-08T04:17:51;2.10;99.90
20345;DHT22;10330;48.816;9.278;2024-03-08T04:20:18;2.00;99.90
20345;DHT22;10330;48.816;9.278;2024-03-08T04:22:45;2.00;99.90
20345;DHT22;10330;48.816;9.278;2024-03-08T04:25:20;2.20;99.90
20345;DHT22;10330;48.816;9.278;2024-03-08T04:27:50;2.10;99.90
20345;DHT22;10330;48.816;9.278;2024-03-08T04:30:18;2.10;99.90
20345;DHT22;10330;48.816;9.278;2024-03-08T04:32:44;2.10;99.90
20345;DHT22;10330;48.816;9.278;2024-03-08T04:35:11;2.10;99.90
20345;DHT22;10330;48.816;9.278;2024-03-08T04:37:38;2.10;99.90
20345;DHT22;10330;48.816;9.278;2024-03-08T04:40:06;2.20;99.90
20345;DHT22;10330;48.816;9.278;2024-03-08T04:42:35;2.10;99.90
20345;DHT22;10330;48.816;9.278;2024-03-08T04:45:03;2.20;99.90
20345;DHT22;10330;48.816;9.278;2024-03-08T04:47:32;2.20;99.90
20345;DHT22;10330;48.816;9.278;2024-03-08T04:49:59;2.20;99.90
20345;DHT22;10330;48.816;9.278;2024-03-08T04:52:26;2.20;99.90
20345;DHT22;10330;48.816;9.278;2024-03-08T04:54:52;2.30;99.90
20345;DHT22;10330;48.816;9.278;2024-03-08T04:57:18;2.30;99.90
20345;DHT22;10330;48.816;9.278;2024-03-08T04:59:45;2.30;99.90
20345;DHT22;10330;48.816;9.278;2024-03-08T05:02:11;2.30;99.90
20345;DHT22;10330;48.816;9.278;2024-03-08T05:04:38;2.30;99.90
20345;DHT22;10330;48.816;9.278;2024-03-08T05:07:04;2.20;99.90
20345;DHT22;10330;48.816;9.278;2024-03-08T05:09:30;2.20;99.90
20345;DHT22;10330;48.816;9.278;2024-03-08T05:11:58;2.20;99.90
20345;DHT22;10330;48.816;9.278;2024-03-08T05:14:25;2.30;99.90
20345;DHT22;10330;48.816;9.278;2024-03-08T05:16:51;2.30;99.90
20345;DHT22;10330;48.816;9.278;2024-03-08T05:19:19;2.30;99.90
20345;DHT22;10330;48.816;9.278;2024-03-08T05:21:49;2.20;99.90
20345;DHT22;10330;48.816;9.278;2024-03-08T05:24:16;2.20;99.90
20345;DHT22;10330;48.816;9.278;2024-03-08T05:26:43;2.20;99.90
20345;DHT22;10330;48.816;9.278;2024-03-08T05:29:12;2.20;99.90
20345;DHT22;10330;48.816;9.278;2024-03-08T05:31:50;2.20;99.90
20345;DHT22;10330;48.816;9.278;2024-03-08T05:34:18;2.20;99.90
20345;DHT22;10330;48.816;9.278;2024-03-08T05:36:51;2.20;99.90
20345;DHT22;10330;48.816;9.278;2024-03-08T05:39:18;2.10;99.90
20345;DHT22;10330;48.816;9.278;2024-03-08T05:41:44;2.10;99.90
20345;DHT22;10330;48.816;9.278;2024-03-08T05:44:14;2.10;99.90
20345;DHT22;10330;48.816;9.278;2024-03-08T05:46:40;2.10;99.90
20345;DHT22;10330;48.816;9.278;2024-03-08T05:49:07;2.00;99.90
20345;DHT22;10330;48.816;9.278;2024-03-08T05:51:40;2.00;99.90
20345;DHT22;10330;48.816;9.278;2024-03-08T05:54:08;2.00;99.90
20345;DHT22;10330;48.816;9.278;2024-03-08T05:56:38;2.00;99.90
20345;DHT22;10330;48.816;9.278;2024-03-08T05:59:08;2.00;99.90
20345;DHT22;10330;48.816;9.278;2024-03-08T06:01:35;2.00;99.90
20345;DHT22;10330;48.816;9.278;2024-03-08T06:04:03;2.00;99.90
20345;DHT22;10330;48.816;9.278;2024-03-08T06:06:29;2.10;99.90
20345;DHT22;10330;48.816;9.278;2024-03-08T06:08:56;2.10;99.90
20345;DHT22;10330;48.816;9.278;2024-03-08T06:11:26;2.20;99.90
20345;DHT22;10330;48.816;9.278;2024-03-08T06:13:56;2.30;99.90
20345;DHT22;10330;48.816;9.278;2024-03-08T06:16:27;2.30;99.90
20345;DHT22;10330;48.816;9.278;2024-03-08T06:18:59;2.30;99.90
20345;DHT22;10330;48.816;9.278;2024-03-08T06:21:28;2.40;99.90
20345;DHT22;10330;48.816;9.278;2024-03-08T06:23:54;2.50;99.90
20345;DHT22;10330;48.816;9.278;2024-03-08T06:26:21;2.60;99.90
20345;DHT22;10330;48.816;9.278;2024-03-08T06:29:00;2.60;99.90
20345;DHT22;10330;48.816;9.278;2024-03-08T06:31:26;2.70;99.90
20345;DHT22;10330;48.816;9.278;2024-03-08T06:33:53;2.70;99.90
20345;DHT22;10330;48.816;9.278;2024-03-08T06:36:22;2.80;99.90
20345;DHT22;10330;48.816;9.278;2024-03-08T06:38:51;2.90;99.90
20345;DHT22;10330;48.816;9.278;2024-03-08T06:41:18;3.00;99.90
20345;DHT22;10330;48.816;9.278;2024-03-08T06:43:47;3.00;99.90
20345;DHT22;10330;48.816;9.278;2024-03-08T06:46:22;3.00;99.90
20345;DHT22;10330;48.816;9.278;2024-03-08T06:48:48;3.10;99.90
20345;DHT22;10330;48.816;9.278;2024-03-08T06:51:15;3.10;99.90
20345;DHT22;10330;48.816;9.278;2024-03-08T06:53:41;3.10;99.90
20345;DHT22;10330;48.816;9.278;2024-03-08T06:56:07;3.20;99.90
20345;DHT22;10330;48.816;9.278;2024-03-08T06:58:34;3.30;99.90
20345;DHT22;10330;48.816;9.278;2024-03-08T07:01:00;3.30;99.90
20345;DHT22;10330;48.816;9.278;2024-03-08T07:03:29;3.40;99.90
20345;DHT22;10330;48.816;9.278;2024-03-08T07:05:56;3.40;99.90
20345;DHT22;10330;48.816;9.278;2024-03-08T07:08:24;3.50;99.90
20345;DHT22;10330;48.816;9.278;2024-03-08T07:10:55;3.60;99.90
20345;DHT22;10330;48.816;9.278;2024-03-08T07:15:50;3.60;99.90
20345;DHT22;10330;48.816;9.278;2024-03-08T07:18:18;3.70;99.90
20345;DHT22;10330;48.816;9.278;2024-03-08T07:20:44;3.70;99.90
20345;DHT22;10330;48.816;9.278;2024-03-08T07:23:13;3.70;99.90
20345;DHT22;10330;48.816;9.278;2024-03-08T07:25:59;3.70;99.90
20345;DHT22;10330;48.816;9.278;2024-03-08T07:28:27;3.80;99.90
20345;DHT22;10330;48.816;9.278;2024-03-08T07:30:53;4.50;99.90
20345;DHT22;10330;48.816;9.278;2024-03-08T07:33:34;4.60;99.90
20345;DHT22;10330;48.816;9.278;2024-03-08T07:36:00;4.50;99.90
20345;DHT22;10330;48.816;9.278;2024-03-08T07:38:27;4.30;99.90
20345;DHT22;10330;48.816;9.278;2024-03-08T07:40:53;4.30;99.90
20345;DHT22;10330;48.816;9.278;2024-03-08T07:43:20;4.30;99.90
20345;DHT22;10330;48.816;9.278;2024-03-08T07:45:46;4.10;99.90
20345;DHT22;10330;48.816;9.278;2024-03-08T07:48:18;4.10;99.90
20345;DHT22;10330;48.816;9.278;2024-03-08T07:50:47;4.10;99.90
20345;DHT22;10330;48.816;9.278;2024-03-08T07:53:22;4.10;99.90
20345;DHT22;10330;48.816;9.278;2024-03-08T07:55:50;4.10;99.90
20345;DHT22;10330;48.816;9.278;2024-03-08T07:58:20;4.10;99.90
20345;DHT22;10330;48.816;9.278;2024-03-08T08:00:47;4.10;99.90
20345;DHT22;10330;48.816;9.278;2024-03-08T08:03:13;4.00;99.90
20345;DHT22;10330;48.816;9.278;2024-03-08T08:05:40;4.10;99.90
20345;DHT22;10330;48.816;9.278;2024-03-08T08:08:08;4.00;99.90
20345;DHT22;10330;48.816;9.278;2024-03-08T08:10:37;4.10;99.90
20345;DHT22;10330;48.816;9.278;2024-03-08T08:13:09;4.10;99.90
20345;DHT22;10330;48.816;9.278;2024-03-08T08:15:36;4.00;99.90
20345;DHT22;10330;48.816;9.278;2024-03-08T08:18:02;4.20;99.90
20345;DHT22;10330;48.816;9.278;2024-03-08T08:20:31;4.10;99.90
20345;DHT22;10330;48.816;9.278;2024-03-08T08:22:58;4.10;99.90
20345;DHT22;10330;48.816;9.278;2024-03-08T08:25:25;4.20;99.90
20345;DHT22;10330;48.816;9.278;2024-03-08T08:27:51;4.20;99.90
20345;DHT22;10330;48.816;9.278;2024-03-08T08:30:20;4.20;99.90
20345;DHT22;10330;48.816;9.278;2024-03-08T08:32:46;4.40;99.90
20345;DHT22;10330;48.816;9.278;2024-03-08T08:35:16;4.40;99.90
20345;DHT22;10330;48.816;9.278;2024-03-08T08:37:42;4.50;99.90
20345;DHT22;10330;48.816;9.278;2024-03-08T08:40:10;4.50;99.90
20345;DHT22;10330;48.816;9.278;2024-03-08T08:42:40;4.50;99.90
20345;DHT22;10330;48.816;9.278;2024-03-08T08:45:09;4.40;99.90
20345;DHT22;10330;48.816;9.278;2024-03-08T08:47:36;4.40;99.90
20345;DHT22;10330;48.816;9.278;2024-03-08T08:50:03;4.50;99.90
20345;DHT22;10330;48.816;9.278;2024-03-08T08:52:32;4.50;99.90
20345;DHT22;10330;48.816;9.278;2024-03-08T08:55:05;4.60;99.90
20345;DHT22;10330;48.816;9.278;2024-03-08T08:57:32;4.60;99.90
20345;DHT22;10330;48.816;9.278;2024-03-08T08:59:59;4.70;99.90
20345;DHT22;10330;48.816;9.278;2024-03-08T09:02:26;4.70;99.90
20345;DHT22;10330;48.816;9.278;2024-03-08T09:04:52;4.60;99.90
20345;DHT22;10330;48.816;9.278;2024-03-08T09:07:19;4.70;99.90
20345;DHT22;10330;48.816;9.278;2024-03-08T09:09:45;4.80;99.90
20345;DHT22;10330;48.816;9.278;2024-03-08T09:12:11;4.80;99.90
20345;DHT22;10330;48.816;9.278;2024-03-08T09:14:40;4.80;99.90
20345;DHT22;10330;48.816;9.278;2024-03-08T09:17:08;4.90;99.90
20345;DHT22;10330;48.816;9.278;2024-03-08T09:19:37;4.80;99.90
20345;DHT22;10330;48.816;9.278;2024-03-08T09:22:04;4.90;99.90
20345;DHT22;10330;48.816;9.278;2024-03-08T09:24:34;5.00;99.90
20345;DHT22;10330;48.816;9.278;2024-03-08T09:27:03;5.00;99.90
20345;DHT22;10330;48.816;9.278;2024-03-08T09:29:30;5.00;99.90
20345;DHT22;10330;48.816;9.278;2024-03-08T09:31:56;5.10;99.90
20345;DHT22;10330;48.816;9.278;2024-03-08T09:34:23;5.00;99.90
20345;DHT22;10330;48.816;9.278;2024-03-08T09:36:50;5.10;99.90
20345;DHT22;10330;48.816;9.278;2024-03-08T09:39:35;5.10;99.90
20345;DHT22;10330;48.816;9.278;2024-03-08T09:42:02;5.20;99.90
20345;DHT22;10330;48.816;9.278;2024-03-08T09:44:32;5.20;99.90
20345;DHT22;10330;48.816;9.278;2024-03-08T09:46:59;5.20;99.90
20345;DHT22;10330;48.816;9.278;2024-03-08T09:49:28;5.20;99.90
20345;DHT22;10330;48.816;9.278;2024-03-08T09:52:29;5.20;99.90
20345;DHT22;10330;48.816;9.278;2024-03-08T09:54:59;5.20;99.90
20345;DHT22;10330;48.816;9.278;2024-03-08T09:57:26;5.30;99.90
20345;DHT22;10330;48.816;9.278;2024-03-08T09:59:53;5.40;99.90
20345;DHT22;10330;48.816;9.278;2024-03-08T10:02:23;5.30;99.90
20345;DHT22;10330;48.816;9.278;2024-03-08T10:04:51;5.40;99.90
20345;DHT22;10330;48.816;9.278;2024-03-08T10:07:19;5.50;99.90
20345;DHT22;10330;48.816;9.278;2024-03-08T10:09:45;5.50;99.90
20345;DHT22;10330;48.816;9.278;2024-03-08T10:12:16;5.60;99.90
20345;DHT22;10330;48.816;9.278;2024-03-08T10:14:57;5.60;99.90
20345;DHT22;10330;48.816;9.278;2024-03-08T10:17:50;5.70;99.90
20345;DHT22;10330;48.816;9.278;2024-03-08T10:24:10;5.90;99.90
20345;DHT22;10330;48.816;9.278;2024-03-08T10:26:39;6.10;99.90
20345;DHT22;10330;48.816;9.278;2024-03-08T10:33:27;6.20;99.90
20345;DHT22;10330;48.816;9.278;2024-03-08T10:35:54;6.40;99.90
20345;DHT22;10330;48.816;9.278;2024-03-08T10:38:26;6.50;99.90
20345;DHT22;10330;48.816;9.278;2024-03-08T10:40:56;6.50;99.90
20345;DHT22;10330;48.816;9.278;2024-03-08T10:43:24;6.60;99.90
20345;DHT22;10330;48.816;9.278;2024-03-08T10:46:06;6.50;99.90
20345;DHT22;10330;48.816;9.278;2024-03-08T10:48:44;6.60;99.90
20345;DHT22;10330;48.816;9.278;2024-03-08T10:51:11;6.50;99.90
20345;DHT22;10330;48.816;9.278;2024-03-08T10:53:38;6.50;99.90
20345;DHT22;10330;48.816;9.278;2024-03-08T10:56:08;6.60;99.90
20345;DHT22;10330;48.816;9.278;2024-03-08T10:58:36;6.60;99.90
20345;DHT22;10330;48.816;9.278;2024-03-08T11:01:06;6.70;99.90
20345;DHT22;10330;48.816;9.278;2024-03-08T11:06:18;6.90;99.90
20345;DHT22;10330;48.816;9.278;2024-03-08T11:08:46;6.80;99.90
20345;DHT22;10330;48.816;9.278;2024-03-08T11:11:36;7.00;99.90
20345;DHT22;10330;48.816;9.278;2024-03-08T11:14:02;7.10;99.90
20345;DHT22;10330;48.816;9.278;2024-03-08T11:19:22;7.30;99.90
20345;DHT22;10330;48.816;9.278;2024-03-08T11:22:00;7.50;99.90
20345;DHT22;10330;48.816;9.278;2024-03-08T11:24:26;7.80;99.90
20345;DHT22;10330;48.816;9.278;2024-03-08T11:26:59;7.90;99.90
20345;DHT22;10330;48.816;9.278;2024-03-08T11:32:15;8.00;99.90
20345;DHT22;10330;48.816;9.278;2024-03-08T11:34:46;7.90;99.90
20345;DHT22;10330;48.816;9.278;2024-03-08T11:37:17;7.90;99.90
20345;DHT22;10330;48.816;9.278;2024-03-08T11:39:51;8.20;99.90
20345;DHT22;10330;48.816;9.278;2024-03-08T11:42:19;8.60;99.90
20345;DHT22;10330;48.816;9.278;2024-03-08T11:44:46;8.70;99.90
20345;DHT22;10330;48.816;9.278;2024-03-08T11:47:21;8.70;99.90
20345;DHT22;10330;48.816;9.278;2024-03-08T11:50:00;9.00;99.90
20345;DHT22;10330;48.816;9.278;2024-03-08T11:52:32;9.20;99.90
20345;DHT22;10330;48.816;9.278;2024-03-08T11:54:59;9.40;99.90
20345;DHT22;10330;48.816;9.278;2024-03-08T11:57:26;9.90;99.90
20345;DHT22;10330;48.816;9.278;2024-03-08T11:59:53;10.40;99.90
20345;DHT22;10330;48.816;9.278;2024-03-08T12:02:23;10.90;99.90
20345;DHT22;10330;48.816;9.278;2024-03-08T12:05:00;11.30;99.90
20345;DHT22;10330;48.816;9.278;2024-03-08T12:11:22;12.20;99.90
20345;DHT22;10330;48.816;9.278;2024-03-08T12:13:49;12.40;99.90
20345;DHT22;10330;48.816;9.278;2024-03-08T12:16:17;12.70;99.90
20345;DHT22;10330;48.816;9.278;2024-03-08T12:18:44;13.20;99.90
20345;DHT22;10330;48.816;9.278;2024-03-08T12:21:12;13.70;99.90
20345;DHT22;10330;48.816;9.278;2024-03-08T12:23:46;14.10;99.90
20345;DHT22;10330;48.816;9.278;2024-03-08T12:26:26;14.40;99.90
20345;DHT22;10330;48.816;9.278;2024-03-08T12:28:52;14.40;99.90
20345;DHT22;10330;48.816;9.278;2024-03-08T12:31:22;14.30;99.90
20345;DHT22;10330;48.816;9.278;2024-03-08T12:37:50;14.40;99.90
20345;DHT22;10330;48.816;9.278;2024-03-08T12:40:32;14.60;99.90
20345;DHT22;10330;48.816;9.278;2024-03-08T12:43:07;14.70;99.90
20345;DHT22;10330;48.816;9.278;2024-03-08T12:45:34;15.20;99.90
20345;DHT22;10330;48.816;9.278;2024-03-08T12:48:01;15.50;99.90
20345;DHT22;10330;48.816;9.278;2024-03-08T12:50:29;15.20;99.90
20345;DHT22;10330;48.816;9.278;2024-03-08T12:52:56;15.60;99.90
20345;DHT22;10330;48.816;9.278;2024-03-08T12:55:25;15.90;99.90
20345;DHT22;10330;48.816;9.278;2024-03-08T12:57:52;15.90;99.90
20345;DHT22;10330;48.816;9.278;2024-03-08T13:00:19;15.30;99.90
20345;DHT22;10330;48.816;9.278;2024-03-08T13:02:48;15.50;99.90
20345;DHT22;10330;48.816;9.278;2024-03-08T13:05:21;15.90;99.90
20345;DHT22;10330;48.816;9.278;2024-03-08T13:07:47;16.10;99.90
20345;DHT22;10330;48.816;9.278;2024-03-08T13:10:16;15.80;99.90
20345;DHT22;10330;48.816;9.278;2024-03-08T13:12:46;15.70;99.90
20345;DHT22;10330;48.816;9.278;2024-03-08T13:15:13;15.90;99.90
20345;DHT22;10330;48.816;9.278;2024-03-08T13:17:47;16.20;99.90
20345;DHT22;10330;48.816;9.278;2024-03-08T13:20:14;16.30;99.90
20345;DHT22;10330;48.816;9.278;2024-03-08T13:22:48;16.00;99.90
20345;DHT22;10330;48.816;9.278;2024-03-08T13:25:14;16.60;99.90
20345;DHT22;10330;48.816;9.278;2024-03-08T13:27:41;16.80;99.90
20345;DHT22;10330;48.816;9.278;2024-03-08T13:30:09;16.70;99.90
20345;DHT22;10330;48.816;9.278;2024-03-08T13:32:40;16.20;99.90
20345;DHT22;10330;48.816;9.278;2024-03-08T13:35:10;16.30;99.90
20345;DHT22;10330;48.816;9.278;2024-03-08T13:37:42;16.60;99.90
20345;DHT22;10330;48.816;9.278;2024-03-08T13:40:10;16.40;99.90
20345;DHT22;10330;48.816;9.278;2024-03-08T13:42:56;16.70;99.90
20345;DHT22;10330;48.816;9.278;2024-03-08T13:45:24;17.00;99.90
20345;DHT22;10330;48.816;9.278;2024-03-08T13:47:53;17.00;99.90
20345;DHT22;10330;48.816;9.278;2024-03-08T13:50:22;17.00;99.90
20345;DHT22;10330;48.816;9.278;2024-03-08T13:52:58;16.90;99.90
20345;DHT22;10330;48.816;9.278;2024-03-08T13:55:30;17.10;99.90
20345;DHT22;10330;48.816;9.278;2024-03-08T13:58:09;17.30;99.90
20345;DHT22;10330;48.816;9.278;2024-03-08T14:00:40;17.60;99.90
20345;DHT22;10330;48.816;9.278;2024-03-08T14:03:10;17.10;99.90
20345;DHT22;10330;48.816;9.278;2024-03-08T14:05:41;16.80;99.90
20345;DHT22;10330;48.816;9.278;2024-03-08T14:08:11;16.70;99.90
20345;DHT22;10330;48.816;9.278;2024-03-08T14:10:41;17.30;99.90
20345;DHT22;10330;48.816;9.278;2024-03-08T14:13:33;17.80;99.90
20345;DHT22;10330;48.816;9.278;2024-03-08T14:16:02;17.50;99.90
20345;DHT22;10330;48.816;9.278;2024-03-08T14:18:31;17.40;99.90
20345;DHT22;10330;48.816;9.278;2024-03-08T14:21:00;17.50;99.90
20345;DHT22;10330;48.816;9.278;2024-03-08T14:23:30;17.50;99.90
20345;DHT22;10330;48.816;9.278;2024-03-08T14:26:00;17.60;99.90
20345;DHT22;10330;48.816;9.278;2024-03-08T14:28:26;17.60;99.90
20345;DHT22;10330;48.816;9.278;2024-03-08T14:31:15;17.30;99.90
20345;DHT22;10330;48.816;9.278;2024-03-08T14:33:45;17.60;99.90
20345;DHT22;10330;48.816;9.278;2024-03-08T14:36:15;17.80;99.90
20345;DHT22;10330;48.816;9.278;2024-03-08T14:38:48;17.30;99.90
20345;DHT22;10330;48.816;9.278;2024-03-08T14:41:17;17.00;99.90
20345;DHT22;10330;48.816;9.278;2024-03-08T14:43:43;17.30;99.90
20345;DHT22;10330;48.816;9.278;2024-03-08T14:46:15;17.30;99.90
20345;DHT22;10330;48.816;9.278;2024-03-08T14:48:47;17.30;99.90
20345;DHT22;10330;48.816;9.278;2024-03-08T14:51:19;17.20;99.90
20345;DHT22;10330;48.816;9.278;2024-03-08T14:53:52;17.30;99.90
20345;DHT22;10330;48.816;9.278;2024-03-08T14:56:19;17.30;99.90
20345;DHT22;10330;48.816;9.278;2024-03-08T14:58:46;17.10;99.90
20345;DHT22;10330;48.816;9.278;2024-03-08T15:01:18;17.10;99.90
20345;DHT22;10330;48.816;9.278;2024-03-08T15:03:50;17.10;99.90
20345;DHT22;10330;48.816;9.278;2024-03-08T15:06:17;16.90;99.90
20345;DHT22;10330;48.816;9.278;2024-03-08T15:08:46;17.00;99.90
20345;DHT22;10330;48.816;9.278;2024-03-08T15:11:15;17.10;99.90
20345;DHT22;10330;48.816;9.278;2024-03-08T15:13:50;17.00;99.90
20345;DHT22;10330;48.816;9.278;2024-03-08T15:16:19;16.80;99.90
20345;DHT22;10330;48.816;9.278;2024-03-08T15:18:49;16.80;99.90
20345;DHT22;10330;48.816;9.278;2024-03-08T15:21:18;16.80;99.90
20345;DHT22;10330;48.816;9.278;2024-03-08T15:24:19;16.70;99.90
20345;DHT22;10330;48.816;9.278;2024-03-08T15:26:52;16.70;99.90
20345;DHT22;10330;48.816;9.278;2024-03-08T15:29:23;16.50;99.90
20345;DHT22;10330;48.816;9.278;2024-03-08T15:31:56;16.40;99.90
20345;DHT22;10330;48.816;9.278;2024-03-08T15:34:22;16.40;99.90
20345;DHT22;10330;48.816;9.278;2024-03-08T15:36:51;16.40;99.90
20345;DHT22;10330;48.816;9.278;2024-03-08T15:39:23;16.40;99.90
20345;DHT22;10330;48.816;9.278;2024-03-08T15:45:48;16.20;99.90
20345;DHT22;10330;48.816;9.278;2024-03-08T15:56:02;15.40;99.90
20345;DHT22;10330;48.816;9.278;2024-03-08T16:02:45;14.90;99.90
20345;DHT22;10330;48.816;9.278;2024-03-08T16:10:04;14.20;99.90
20345;DHT22;10330;48.816;9.278;2024-03-08T16:12:40;13.30;99.90
20345;DHT22;10330;48.816;9.278;2024-03-08T16:15:08;13.10;99.90
20345;DHT22;10330;48.816;9.278;2024-03-08T16:17:35;13.00;99.90
20345;DHT22;10330;48.816;9.278;2024-03-08T16:24:09;12.60;99.90
20345;DHT22;10330;48.816;9.278;2024-03-08T16:26:38;12.40;99.90
20345;DHT22;10330;48.816;9.278;2024-03-08T16:29:10;12.10;99.90
20345;DHT22;10330;48.816;9.278;2024-03-08T16:31:47;12.00;99.90
20345;DHT22;10330;48.816;9.278;2024-03-08T16:45:19;11.30;99.90
20345;DHT22;10330;48.816;9.278;2024-03-08T16:47:49;11.30;99.90
20345;DHT22;10330;48.816;9.278;2024-03-08T16:51:00;11.20;99.90
20345;DHT22;10330;48.816;9.278;2024-03-08T16:53:56;11.10;99.90
20345;DHT22;10330;48.816;9.278;2024-03-08T16:56:47;10.90;99.90
20345;DHT22;10330;48.816;9.278;2024-03-08T16:59:17;10.80;99.90
20345;DHT22;10330;48.816;9.278;2024-03-08T17:01:47;10.70;99.90
20345;DHT22;10330;48.816;9.278;2024-03-08T17:04:19;10.60;99.90
20345;DHT22;10330;48.816;9.278;2024-03-08T17:06:54;10.50;99.90
20345;DHT22;10330;48.816;9.278;2024-03-08T17:13:17;10.30;99.90
20345;DHT22;10330;48.816;9.278;2024-03-08T17:16:11;10.20;99.90
20345;DHT22;10330;48.816;9.278;2024-03-08T17:19:01;10.20;99.90
20345;DHT22;10330;48.816;9.278;2024-03-08T17:22:08;10.10;99.90
20345;DHT22;10330;48.816;9.278;2024-03-08T17:24:38;10.10;99.90
20345;DHT22;10330;48.816;9.278;2024-03-08T17:27:15;9.90;99.90
20345;DHT22;10330;48.816;9.278;2024-03-08T17:30:26;9.80;99.90
20345;DHT22;10330;48.816;9.278;2024-03-08T17:33:03;9.80;99.90
20345;DHT22;10330;48.816;9.278;2024-03-08T17:35:38;9.70;99.90